Ansley, Mississippi
Current Conditions -  °F | °C
As of 2:50 PM on Saturday 25 Oct 2014 (Local Time) from KHSA Reporting Station
Clear Clear  
Wind Chill: 27°   Ceiling: Unl
Heat Index: 27°   Visibility: 10mi
Dew Point: 11°   Wind: 6mph
Humidity: 37%   Direction: 350°N
Pressure: 30.07"   Gusts: NA
Location:  30.2253°N, 89.4838°W
Report Text: KHSA 251950Z 35005KT 10SM CLR 27/11 A3007
Loading
Personal Weather Stations






























Interactive Weather Map
Tropical Storm Tracking
New forecast layout! Learn more

10-Day Weather Forecast

Advertisements
Track Severe Weather on mobile